createdAt,value
2022-08-16T00:01:24.458Z,99124.59
2022-08-16T00:03:52.479Z,99131.13
2022-08-16T00:06:19.168Z,99134.38
2022-08-16T00:08:46.148Z,99144.00
2022-08-16T00:11:15.984Z,99138.16
2022-08-16T00:13:54.000Z,99148.59
2022-08-16T00:17:00.776Z,99157.88
2022-08-16T00:19:22.482Z,99151.22
2022-08-16T00:21:52.040Z,99161.06
2022-08-16T00:24:31.110Z,99153.59
2022-08-16T00:27:01.049Z,99154.94
2022-08-16T00:29:29.675Z,99154.63
2022-08-16T00:32:01.073Z,99148.81
2022-08-16T00:34:44.029Z,99167.47
2022-08-16T00:37:20.790Z,99159.75
2022-08-16T00:39:58.020Z,99164.66
2022-08-16T00:42:30.370Z,99170.16
2022-08-16T00:45:28.440Z,99168.47
2022-08-16T00:47:55.933Z,99172.31
2022-08-16T00:50:36.057Z,99165.69
2022-08-16T00:53:06.161Z,99176.66
2022-08-16T00:55:38.100Z,99176.16
2022-08-16T00:58:13.236Z,99179.47
2022-08-16T01:00:44.468Z,99172.06
2022-08-16T01:03:30.280Z,99179.47
2022-08-16T01:05:59.042Z,99176.41
2022-08-16T01:08:36.031Z,99176.66
2022-08-16T01:11:05.361Z,99177.19
2022-08-16T01:13:36.593Z,99178.84
2022-08-16T01:16:10.246Z,99169.50
2022-08-16T01:18:44.345Z,99176.66
2022-08-16T01:21:36.161Z,99164.88
2022-08-16T01:24:51.526Z,99167.88
2022-08-16T01:27:48.560Z,99163.72
2022-08-16T01:30:26.068Z,99161.22
2022-08-16T01:33:02.765Z,99159.53
2022-08-16T01:35:56.158Z,99168.88
2022-08-16T01:38:25.690Z,99160.88
2022-08-16T01:41:02.034Z,99172.69
2022-08-16T01:43:31.275Z,99180.34
2022-08-16T01:46:29.943Z,99174.84
2022-08-16T01:48:48.813Z,99177.59
2022-08-16T01:51:18.686Z,99175.94
2022-08-16T01:53:55.196Z,99178.66
2022-08-16T01:56:24.608Z,99177.34
2022-08-16T01:58:54.997Z,99183.09
2022-08-16T02:01:22.552Z,99183.34
2022-08-16T02:03:51.908Z,99173.69
2022-08-16T02:06:34.640Z,99174.50
2022-08-16T02:09:07.277Z,99171.44
2022-08-16T02:11:48.101Z,99165.91
2022-08-16T02:14:21.496Z,99172.72
2022-08-16T02:16:49.431Z,99169.72
2022-08-16T02:19:18.614Z,99173.03
2022-08-16T02:22:07.795Z,99182.88
2022-08-16T02:24:41.269Z,99178.53
2022-08-16T02:27:10.848Z,99174.69
2022-08-16T02:29:38.348Z,99182.38
2022-08-16T02:32:50.819Z,99181.19
2022-08-16T02:34:57.278Z,99192.19
2022-08-16T02:37:24.139Z,99197.66
2022-08-16T02:40:16.307Z,99194.34
2022-08-16T02:42:50.054Z,99194.34
2022-08-16T02:45:20.191Z,99196.84
2022-08-16T02:48:00.577Z,99199.84
2022-08-16T02:50:54.088Z,99191.00
2022-08-16T02:53:23.664Z,99196.50
2022-08-16T02:55:51.358Z,99195.69
2022-08-16T02:58:19.877Z,99191.50
2022-08-16T03:00:53.919Z,99196.44
2022-08-16T03:03:23.131Z,99196.44
2022-08-16T03:05:52.509Z,99193.69
2022-08-16T03:08:51.730Z,99202.75
2022-08-16T03:11:16.977Z,99211.81
2022-08-16T03:13:56.438Z,99202.50
2022-08-16T03:16:38.789Z,99205.84
2022-08-16T03:19:09.613Z,99197.59
2022-08-16T03:21:38.606Z,99203.66
2022-08-16T03:24:27.687Z,99206.41
2022-08-16T03:26:58.160Z,99201.47
2022-08-16T03:29:31.555Z,99199.84
2022-08-16T03:32:01.389Z,99210.22
2022-08-16T03:34:29.640Z,99211.63
2022-08-16T03:36:57.525Z,99208.66
2022-08-16T03:39:24.757Z,99216.88
2022-08-16T03:41:59.972Z,99220.13
2022-08-16T03:44:40.657Z,99217.88
2022-08-16T03:47:12.372Z,99219.81
2022-08-16T03:49:39.473Z,99220.13
2022-08-16T03:52:07.269Z,99217.13
2022-08-16T03:54:35.904Z,99219.63
2022-08-16T03:57:04.941Z,99215.81
2022-08-16T03:59:32.463Z,99213.63
2022-08-16T04:02:00.939Z,99214.19
2022-08-16T04:04:33.463Z,99214.19
2022-08-16T04:07:02.780Z,99221.91
2022-08-16T04:09:35.570Z,99218.59
2022-08-16T04:12:11.051Z,99217.78
2022-08-16T04:14:46.903Z,99218.09
2022-08-16T04:17:17.136Z,99211.53
2022-08-16T04:19:47.442Z,99208.84
2022-08-16T04:22:19.612Z,99222.09
2022-08-16T04:24:54.256Z,99221.59
2022-08-16T04:27:24.399Z,99221.91
2022-08-16T04:29:55.366Z,99217.91
2022-08-16T04:32:30.036Z,99226.69
2022-08-16T04:34:56.746Z,99221.88
2022-08-16T04:37:23.370Z,99237.84
2022-08-16T04:39:55.297Z,99248.81
2022-08-16T04:42:26.308Z,99242.31
2022-08-16T04:44:57.701Z,99243.47
2022-08-16T04:47:35.545Z,99246.91
2022-08-16T04:50:22.515Z,99251.38
2022-08-16T04:52:57.935Z,99251.50
2022-08-16T04:55:37.819Z,99257.38
2022-08-16T04:58:43.959Z,99248.94
2022-08-16T05:00:53.592Z,99245.63
2022-08-16T05:03:21.452Z,99244.13
2022-08-16T05:05:55.908Z,99244.75
2022-08-16T05:08:30.799Z,99246.47
2022-08-16T05:11:05.519Z,99230.06
2022-08-16T05:13:40.069Z,99227.41
2022-08-16T05:16:20.226Z,99230.75
2022-08-16T05:18:50.358Z,99236.88
2022-08-16T05:21:17.100Z,99233.66
2022-08-16T05:23:55.848Z,99228.25
2022-08-16T05:26:27.869Z,99229.84
2022-08-16T05:28:56.060Z,99232.69
2022-08-16T05:31:29.191Z,99232.75
2022-08-16T05:34:00.846Z,99230.63
2022-08-16T05:36:33.921Z,99240.59
2022-08-16T05:39:08.856Z,99233.53
2022-08-16T05:41:45.373Z,99231.97
2022-08-16T05:44:24.051Z,99225.38
2022-08-16T05:46:57.044Z,99230.38
2022-08-16T05:49:26.186Z,99221.91
2022-08-16T05:52:11.456Z,99231.84
2022-08-16T05:54:46.666Z,99238.75
2022-08-16T05:57:16.812Z,99235.47
2022-08-16T05:59:43.739Z,99241.59
2022-08-16T06:02:10.377Z,99247.09
2022-08-16T06:04:37.965Z,99246.22
2022-08-16T06:07:24.262Z,99242.63
2022-08-16T06:09:52.739Z,99252.06
2022-08-16T06:12:26.804Z,99240.56
2022-08-16T06:14:59.073Z,99249.38
2022-08-16T06:17:42.857Z,99258.19
2022-08-16T06:20:18.410Z,99269.84
2022-08-16T06:22:59.047Z,99278.34
2022-08-16T06:25:35.817Z,99275.88
2022-08-16T06:28:08.777Z,99269.50
2022-08-16T06:30:43.535Z,99261.50
2022-08-16T06:33:13.034Z,99260.97
2022-08-16T06:35:47.251Z,99251.56
2022-08-16T06:38:31.922Z,99247.44
2022-08-16T06:41:01.104Z,99251.88
2022-08-16T06:43:29.177Z,99252.41
2022-08-16T06:45:56.201Z,99252.13
2022-08-16T06:48:32.445Z,99251.59
2022-08-16T06:51:02.250Z,99250.50
2022-08-16T06:53:29.713Z,99247.16
2022-08-16T06:55:58.725Z,99252.72
2022-08-16T06:58:31.635Z,99249.31
2022-08-16T07:01:00.119Z,99249.66
2022-08-16T07:03:32.591Z,99242.09
2022-08-16T07:06:00.089Z,99258.53
2022-08-16T07:08:28.033Z,99247.38
2022-08-16T07:10:56.034Z,99256.22
2022-08-16T07:13:57.958Z,99248.13
2022-08-16T07:16:15.312Z,99256.88
2022-08-16T07:18:58.105Z,99267.47
2022-08-16T07:21:28.208Z,99265.78
2022-08-16T07:24:29.549Z,99258.56
2022-08-16T07:26:56.933Z,99270.53
2022-08-16T07:29:23.759Z,99278.34
2022-08-16T07:31:50.473Z,99272.47
2022-08-16T07:34:20.869Z,99268.97
2022-08-16T07:37:07.632Z,99268.69
2022-08-16T07:39:36.079Z,99278.19
2022-08-16T07:42:20.068Z,99282.31
2022-08-16T07:44:52.668Z,99275.31
2022-08-16T07:47:19.549Z,99276.97
2022-08-16T07:49:57.926Z,99289.25
2022-08-16T07:52:29.762Z,99285.69
2022-08-16T07:54:57.706Z,99281.75
2022-08-16T07:57:25.288Z,99282.88
2022-08-16T07:59:53.533Z,99276.81
2022-08-16T08:02:27.419Z,99282.75
2022-08-16T08:04:55.934Z,99282.38
2022-08-16T08:07:27.490Z,99300.69
2022-08-16T08:09:56.187Z,99285.66
2022-08-16T08:12:32.383Z,99291.59
2022-08-16T08:15:10.330Z,99291.97
2022-08-16T08:17:43.123Z,99297.44
2022-08-16T08:20:20.781Z,99299.69
2022-08-16T08:23:00.983Z,99297.03
2022-08-16T08:25:53.488Z,99295.66
2022-08-16T08:28:18.476Z,99308.13
2022-08-16T08:30:52.272Z,99295.66
2022-08-16T08:33:28.608Z,99301.75
2022-08-16T08:36:01.101Z,99301.31
2022-08-16T08:38:45.580Z,99300.69
2022-08-16T08:41:18.343Z,99301.06
2022-08-16T08:43:46.247Z,99296.44
2022-08-16T08:46:18.195Z,99295.22
2022-08-16T08:49:00.150Z,99299.84
2022-08-16T08:51:35.492Z,99304.19
2022-08-16T08:54:06.821Z,99305.13
2022-08-16T08:56:37.826Z,99306.94
2022-08-16T08:59:19.851Z,99306.00
2022-08-16T09:01:57.280Z,99311.50
2022-08-16T09:04:26.925Z,99305.69
2022-08-16T09:06:54.695Z,99291.16
2022-08-16T09:09:23.172Z,99310.75
2022-08-16T09:12:03.914Z,99302.28
2022-08-16T09:14:34.640Z,99305.19
2022-08-16T09:17:14.060Z,99310.50
2022-08-16T09:19:52.640Z,99301.88
2022-08-16T09:22:23.151Z,99310.13
2022-08-16T09:24:53.474Z,99303.44
2022-08-16T09:27:25.321Z,99300.75
2022-08-16T09:30:00.281Z,99304.31
2022-08-16T09:32:30.574Z,99299.75
2022-08-16T09:34:59.548Z,99301.06
2022-08-16T09:37:29.206Z,99299.06
2022-08-16T09:40:00.952Z,99310.47
2022-08-16T09:42:28.941Z,99305.59
2022-08-16T09:45:11.068Z,99298.59
2022-08-16T09:47:56.591Z,99299.94
2022-08-16T09:50:33.221Z,99309.19
2022-08-16T09:53:07.579Z,99317.28
2022-08-16T09:55:49.004Z,99304.09
2022-08-16T09:58:41.933Z,99305.09
2022-08-16T10:01:03.359Z,99310.09
2022-08-16T10:03:30.519Z,99307.13
2022-08-16T10:05:57.447Z,99313.66
2022-08-16T10:08:27.057Z,99318.69
2022-08-16T10:11:12.685Z,99322.47
2022-08-16T10:13:41.619Z,99331.13
2022-08-16T10:16:09.224Z,99309.59
2022-08-16T10:19:00.247Z,99303.09
2022-08-16T10:21:24.044Z,99301.09
2022-08-16T10:23:54.881Z,99309.75
2022-08-16T10:27:18.381Z,99307.16
2022-08-16T10:29:11.944Z,99300.72
2022-08-16T10:31:53.524Z,99307.22
2022-08-16T10:34:31.241Z,99300.94
2022-08-16T10:37:02.101Z,99304.47
2022-08-16T10:39:40.506Z,99310.50
2022-08-16T10:42:09.932Z,99312.09
2022-08-16T10:44:36.859Z,99305.31
2022-08-16T10:47:04.227Z,99303.72
2022-08-16T10:49:32.368Z,99306.69
2022-08-16T10:52:01.131Z,99294.81
2022-08-16T10:54:31.128Z,99308.56
2022-08-16T10:57:04.151Z,99310.19
2022-08-16T10:59:47.031Z,99300.13
2022-08-16T11:03:00.805Z,99321.31
2022-08-16T11:05:13.953Z,99301.91
2022-08-16T11:07:51.497Z,99311.06
2022-08-16T11:19:06.140Z,99297.34
2022-08-16T11:22:23.146Z,99308.44
2022-08-16T11:24:41.558Z,99316.66
2022-08-16T11:27:24.062Z,99302.56
2022-08-16T11:29:59.332Z,99314.25
2022-08-16T11:32:32.397Z,99296.91
2022-08-16T11:35:13.982Z,99303.50
2022-08-16T11:40:44.715Z,99307.88
2022-08-16T11:43:16.477Z,99294.41
2022-08-16T11:45:44.262Z,99300.06
2022-08-16T11:48:27.015Z,99295.63
2022-08-16T11:50:54.890Z,99292.34
2022-08-16T11:53:22.096Z,99296.34
2022-08-16T11:55:50.650Z,99316.63
2022-08-16T11:58:26.122Z,99287.53
2022-08-16T12:00:57.571Z,99297.72
2022-08-16T12:03:31.625Z,99300.56
2022-08-16T12:06:10.842Z,99292.72
2022-08-16T12:08:40.161Z,99287.56
2022-08-16T12:11:08.213Z,99293.31
2022-08-16T12:13:36.375Z,99286.19
2022-08-16T12:16:04.586Z,99287.09
2022-08-16T12:18:31.665Z,99288.38
2022-08-16T12:20:58.468Z,99275.69
2022-08-16T12:23:26.954Z,99271.25
2022-08-16T12:25:53.900Z,99274.75
2022-08-16T12:28:36.659Z,99270.31
2022-08-16T12:31:07.713Z,99274.53
2022-08-16T12:33:42.800Z,99268.22
2022-08-16T12:36:13.216Z,99280.19
2022-08-16T12:38:48.105Z,99281.59
2022-08-16T12:41:24.716Z,99272.22
2022-08-16T12:43:52.672Z,99268.22
2022-08-16T12:46:25.207Z,99270.66
2022-08-16T12:48:58.148Z,99269.66
2022-08-16T12:51:58.695Z,99267.72
2022-08-16T12:54:23.599Z,99259.09
2022-08-16T12:56:50.768Z,99256.16
2022-08-16T12:59:20.329Z,99262.03
2022-08-16T13:01:47.828Z,99254.34
2022-08-16T13:04:20.500Z,99260.31
2022-08-16T13:06:50.178Z,99250.81
2022-08-16T13:09:26.158Z,99256.88
2022-08-16T13:12:16.063Z,99263.50
2022-08-16T13:14:44.152Z,99254.19
2022-08-16T13:17:18.775Z,99238.47
2022-08-16T13:22:36.612Z,99242.69
2022-08-16T13:25:06.475Z,99248.38
2022-08-16T13:27:59.108Z,99231.84
2022-08-16T13:30:36.079Z,99235.03
2022-08-16T13:33:10.409Z,99243.53
2022-08-16T13:35:38.452Z,99228.88
2022-08-16T13:38:10.362Z,99229.53
2022-08-16T13:40:48.785Z,99235.38
2022-08-16T13:43:18.154Z,99228.75
2022-08-16T13:45:45.232Z,99225.88
2022-08-16T13:48:21.805Z,99220.25
2022-08-16T13:50:52.971Z,99216.06
2022-08-16T13:53:24.401Z,99217.56
2022-08-16T13:55:58.524Z,99211.16
2022-08-16T13:58:36.384Z,99207.22
2022-08-16T14:01:09.961Z,99209.59
2022-08-16T14:03:37.490Z,99213.56
2022-08-16T14:06:04.199Z,99203.63
2022-08-16T14:08:30.870Z,99207.22
2022-08-16T14:10:57.630Z,99203.69
2022-08-16T14:13:24.436Z,99205.41
2022-08-16T14:15:51.669Z,99205.91
2022-08-16T14:18:20.379Z,99200.63
2022-08-16T14:20:48.519Z,99197.81
2022-08-16T14:23:15.910Z,99196.38
2022-08-16T14:25:42.858Z,99186.47
2022-08-16T14:28:20.488Z,99188.16
2022-08-16T14:30:50.495Z,99188.16
2022-08-16T14:33:18.812Z,99187.34
2022-08-16T14:35:49.196Z,99201.97
2022-08-16T14:38:19.235Z,99192.06
2022-08-16T14:40:55.452Z,99193.06
2022-08-16T14:43:24.891Z,99204.91
2022-08-16T14:45:54.836Z,99210.41
2022-08-16T14:48:25.836Z,99226.22
2022-08-16T14:50:54.774Z,99211.22
2022-08-16T14:53:23.798Z,99212.00
2022-08-16T14:55:50.792Z,99210.41
2022-08-16T14:58:19.652Z,99221.88
2022-08-16T15:00:47.819Z,99231.97
2022-08-16T15:03:19.320Z,99227.13
2022-08-16T15:05:48.483Z,99230.44
2022-08-16T15:08:20.298Z,99234.13
2022-08-16T15:10:47.589Z,99239.31
2022-08-16T15:13:14.910Z,99249.84
2022-08-16T15:15:43.410Z,99240.31
2022-08-16T15:18:12.252Z,99255.22
2022-08-16T15:20:41.185Z,99252.81
2022-08-16T15:23:09.229Z,99256.44
2022-08-16T15:25:57.680Z,99256.53
2022-08-16T15:28:32.280Z,99248.91
2022-08-16T15:31:03.609Z,99251.78
2022-08-16T15:33:32.982Z,99244.94
2022-08-16T15:36:00.555Z,99240.84
2022-08-16T15:38:58.146Z,99247.78
2022-08-16T15:41:43.688Z,99249.72
2022-08-16T15:44:22.410Z,99249.44
2022-08-16T15:46:56.941Z,99245.91
2022-08-16T15:49:37.434Z,99241.03
2022-08-16T15:52:18.148Z,99240.34
2022-08-16T15:54:53.486Z,99237.44
2022-08-16T15:57:27.024Z,99239.97
2022-08-16T15:59:56.045Z,99241.81
2022-08-16T16:02:30.828Z,99233.78
2022-08-16T16:05:00.924Z,99243.47
2022-08-16T16:07:29.936Z,99232.03
2022-08-16T16:09:58.764Z,99237.28
2022-08-16T16:12:56.310Z,99228.50
2022-08-16T16:15:16.754Z,99237.09
2022-08-16T16:17:44.038Z,99240.91
2022-08-16T16:20:18.719Z,99235.94
2022-08-16T16:22:46.320Z,99242.22
2022-08-16T16:25:15.971Z,99233.63
2022-08-16T16:27:44.007Z,99227.00
2022-08-16T16:30:33.513Z,99236.91
2022-08-16T16:33:01.047Z,99248.91
2022-08-16T16:35:30.731Z,99243.53
2022-08-16T16:38:00.190Z,99238.84
2022-08-16T16:40:32.138Z,99245.50
2022-08-16T16:43:00.352Z,99248.44
2022-08-16T16:45:33.515Z,99251.06
2022-08-16T16:48:12.039Z,99248.78
2022-08-16T16:50:45.278Z,99261.97
2022-08-16T16:53:17.134Z,99267.72
2022-08-16T16:55:52.261Z,99269.94
2022-08-16T16:58:43.491Z,99259.75
2022-08-16T17:01:20.945Z,99269.06
2022-08-16T17:04:19.359Z,99269.38
2022-08-16T17:06:53.404Z,99269.38
2022-08-16T17:09:23.769Z,99278.78
2022-08-16T17:11:55.616Z,99281.19
2022-08-16T17:14:33.234Z,99285.97
2022-08-16T17:17:10.041Z,99288.25
2022-08-16T17:19:41.021Z,99285.59
2022-08-16T17:22:32.526Z,99292.84
2022-08-16T17:25:00.350Z,99297.56
2022-08-16T17:27:33.761Z,99300.56
2022-08-16T17:30:15.995Z,99301.91
2022-08-16T17:32:50.702Z,99306.16
2022-08-16T17:35:36.600Z,99308.97
2022-08-16T17:38:07.504Z,99310.03
2022-08-16T17:40:57.719Z,99306.44
2022-08-16T17:43:32.349Z,99313.19
2022-08-16T17:45:59.909Z,99312.28
2022-08-16T17:48:27.455Z,99314.59
2022-08-16T17:50:54.533Z,99315.78
2022-08-16T17:53:22.287Z,99319.75
2022-08-16T17:55:50.478Z,99323.75
2022-08-16T17:58:22.242Z,99324.38
2022-08-16T18:00:53.068Z,99322.25
2022-08-16T18:04:08.957Z,99330.09
2022-08-16T18:06:15.798Z,99331.97
2022-08-16T18:08:42.737Z,99316.50
2022-08-16T18:11:10.396Z,99318.81
2022-08-16T18:13:42.909Z,99324.13
2022-08-16T18:16:10.380Z,99328.88
2022-08-16T18:18:37.282Z,99325.03
2022-08-16T18:21:22.925Z,99330.91
2022-08-16T18:23:49.527Z,99323.47
2022-08-16T18:26:16.140Z,99325.75
2022-08-16T18:28:42.906Z,99336.81
2022-08-16T18:31:09.650Z,99342.91
2022-08-16T18:33:43.352Z,99343.25
2022-08-16T18:36:20.535Z,99342.44
2022-08-16T18:38:48.780Z,99346.06
2022-08-16T18:41:15.964Z,99342.47
2022-08-16T18:44:23.615Z,99346.34
2022-08-16T18:46:29.506Z,99349.66
2022-08-16T18:48:56.130Z,99350.81
2022-08-16T18:51:25.276Z,99358.28
2022-08-16T18:53:52.444Z,99353.59
2022-08-16T18:56:19.678Z,99355.28
2022-08-16T18:58:46.410Z,99356.97
2022-08-16T19:01:13.275Z,99359.78
2022-08-16T19:03:40.009Z,99360.63
2022-08-16T19:06:11.964Z,99360.88
2022-08-16T19:08:42.518Z,99364.22
2022-08-16T19:11:20.000Z,99364.22
2022-08-16T19:13:46.725Z,99362.59
2022-08-16T19:16:14.556Z,99366.47
2022-08-16T19:18:41.475Z,99370.88
2022-08-16T19:21:14.524Z,99370.59
2022-08-16T19:23:42.657Z,99374.19
2022-08-16T19:26:23.402Z,99374.75
2022-08-16T19:28:58.676Z,99380.28
2022-08-16T19:31:32.750Z,99384.13
2022-08-16T19:34:00.784Z,99376.94
2022-08-16T19:36:35.171Z,99388.81
2022-08-16T19:39:08.839Z,99396.28
2022-08-16T19:41:39.083Z,99392.41
2022-08-16T19:44:06.738Z,99397.38
2022-08-16T19:46:34.094Z,99391.50
2022-08-16T19:49:00.842Z,99398.41
2022-08-16T19:51:28.272Z,99408.84
2022-08-16T19:53:55.016Z,99405.53
2022-08-16T19:56:23.921Z,99404.97
2022-08-16T19:59:17.461Z,99409.38
2022-08-16T20:01:42.048Z,99411.00
2022-08-16T20:04:12.569Z,99409.88
2022-08-16T20:06:39.726Z,99410.13
2022-08-16T20:09:06.911Z,99404.88
2022-08-16T20:11:34.857Z,99406.50
2022-08-16T20:14:02.353Z,99400.94
2022-08-16T20:16:29.533Z,99393.16
2022-08-16T20:18:59.545Z,99398.09
2022-08-16T20:21:26.290Z,99402.47
2022-08-16T20:23:58.305Z,99406.03
2022-08-16T20:26:36.841Z,99411.53
2022-08-16T20:29:03.496Z,99415.63
2022-08-16T20:31:30.217Z,99410.66
2022-08-16T20:33:56.928Z,99415.00
2022-08-16T20:36:24.539Z,99423.50
2022-08-16T20:38:51.935Z,99419.03
2022-08-16T20:41:19.116Z,99417.91
2022-08-16T20:43:47.604Z,99423.09
2022-08-16T20:46:14.677Z,99417.59
2022-08-16T20:48:41.959Z,99418.13
2022-08-16T20:51:10.752Z,99429.63
2022-08-16T20:53:42.391Z,99434.03
2022-08-16T20:56:10.472Z,99432.38
2022-08-16T20:58:37.652Z,99433.41
2022-08-16T21:01:05.506Z,99436.16
2022-08-16T21:03:32.432Z,99434.75
2022-08-16T21:06:02.192Z,99438.28
2022-08-16T21:08:52.546Z,99444.84
2022-08-16T21:11:16.399Z,99428.84
2022-08-16T21:13:43.241Z,99433.41
2022-08-16T21:16:09.984Z,99436.16
2022-08-16T21:18:36.577Z,99442.44
2022-08-16T21:21:03.351Z,99441.63
2022-08-16T21:23:30.925Z,99441.59
2022-08-16T21:25:59.706Z,99430.84
2022-08-16T21:28:38.796Z,99436.34
2022-08-16T21:31:10.875Z,99436.88
2022-08-16T21:33:37.709Z,99450.06
2022-08-16T21:36:04.575Z,99446.63
2022-08-16T21:38:31.523Z,99441.59
2022-08-16T21:41:00.209Z,99446.78
2022-08-16T21:43:31.890Z,99453.63
2022-08-16T21:46:00.151Z,99448.66
2022-08-16T21:48:34.916Z,99445.31
2022-08-16T21:51:08.377Z,99453.81
2022-08-16T21:53:35.901Z,99458.75
2022-08-16T21:56:03.942Z,99460.69
2022-08-16T21:58:30.910Z,99465.00
2022-08-16T22:01:07.229Z,99467.19
2022-08-16T22:03:33.936Z,99469.28
2022-08-16T22:06:13.225Z,99471.22
2022-08-16T22:08:50.376Z,99470.06
2022-08-16T22:11:22.926Z,99462.56
2022-08-16T22:13:57.502Z,99474.94
2022-08-16T22:16:29.829Z,99473.50
2022-08-16T22:18:56.488Z,99464.69
2022-08-16T22:21:23.438Z,99468.53
2022-08-16T22:23:56.605Z,99467.09
2022-08-16T22:26:33.813Z,99474.47
2022-08-16T22:29:10.755Z,99465.63
2022-08-16T22:31:39.548Z,99475.47
2022-08-16T22:34:06.674Z,99467.50
2022-08-16T22:36:34.317Z,99471.50
2022-08-16T22:39:03.715Z,99473.13
2022-08-16T22:41:32.762Z,99470.28
2022-08-16T22:44:01.381Z,99466.97
2022-08-16T22:46:28.500Z,99464.13
2022-08-16T22:48:55.151Z,99467.47
2022-08-16T22:51:23.909Z,99461.13
2022-08-16T22:53:52.778Z,99464.13
2022-08-16T22:56:20.924Z,99468.50
2022-08-16T22:58:47.963Z,99464.81
2022-08-16T23:01:17.183Z,99461.25
2022-08-16T23:03:44.363Z,99464.50
2022-08-16T23:06:12.510Z,99470.00
2022-08-16T23:08:41.403Z,99461.69
2022-08-16T23:11:10.839Z,99469.31
2022-08-16T23:13:52.718Z,99463.81
2022-08-16T23:16:33.796Z,99462.19
2022-08-16T23:19:07.176Z,99469.81
2022-08-16T23:21:37.136Z,99466.50
2022-08-16T23:24:05.771Z,99467.00
2022-08-16T23:26:36.376Z,99466.94
2022-08-16T23:29:22.119Z,99464.69
2022-08-16T23:31:53.878Z,99456.19
2022-08-16T23:34:21.802Z,99462.50
2022-08-16T23:36:48.622Z,99458.09
2022-08-16T23:39:15.312Z,99460.00
2022-08-16T23:41:42.146Z,99457.50
2022-08-16T23:44:56.409Z,99461.31
2022-08-16T23:46:55.788Z,99471.25
2022-08-16T23:49:58.570Z,99459.69
2022-08-16T23:52:09.929Z,99459.69
2022-08-16T23:54:36.733Z,99466.00
2022-08-16T23:57:03.896Z,99461.81
2022-08-16T23:59:38.049Z,99459.56
